Стригино

Карта отелей и гостиниц, располагающихся рядом с аэропортом Стригино :

Стригино
Нижний Новгород
Нижегородская область 56° 13' 47.7012" N, 43° 47' 2.8788" E
Код аэродрома ИКАО
UWGG
Код аэродрома RU
УВГГ
Координаты
N56.22992° E043.78413°
Превышение над уровнем моря
78
Основная полоса
36R/18L
Курс магнитный
359,2/179,2
Длина основной ВПП
2807
Ширина основной ВПП
45
Покрытие основной ВПП
Твёрдое
Освещение ВПП
Постоянное
Тип: 
Аэродром
Класс аэродрома: 
Международный
Принадлежность: 
ГА
Статус: 
Действующий
Сайт: 
airportnn.ru
E-mail аэродрома: 
airport@airportnn.ru
Страна: 
Россия
Регион: 
Нижегородская область
Город: 
Нижний Новгород
Дополнительная информация: 
Эксплуатант: ОАО «Международный аэропорт Нижний Новгород» (МАНН). Совместного базирования. Является запасным для аэропортов Московского авиационного узла. На территории расположены: Нижегородский центр ОВД (филиал МЦ АУВД ФГУП "Госкорпорация по ОрВД") и 675-й авиаполк особого назначения (апон) авиации ВВ МВД на самолетах Ил-76 и вертолетах Ми-8. ВПП 02/20 была построена до ВОВ, имела железное покрытие, которое было демонтировано. Военный индекс: XWGG / ЬВГГ.
Схемы аэропортов: 
Погода: 

Авиационная погода в Нижнем Новгороде

Регион: 
Погода METAR: 
UWGG 262030Z 02002MPS 8000 -SN OVC010 M05/M06 Q0994 R36R/490232 NOSIG
Время наблюдения
2021-02-26T20:30:00Z
Температура C
-5.0
Точка росы
-6.0
Направление ветра
20
Скорость ветра (узлы)
4
Метео видимость
4.97
Явления погоды
-SN
Условия полета
MVFR
Аэропорт подробнее: 

Найти трансфер

С помощью этой формы Вы можете найти трансфер из аэропорта Стригино в город, аэропорт или вокзал:

Карта места

Javascript is required to view this map.

Погода в аэропортах:

Авиационная погода в Архангельске

Регион: 
Погода METAR: 
ULAA 262030Z 16002MPS 110V210 5000 -SHSN BKN007CB BKN023 M11/M14 Q1004 R08/490538 NOSIG RMK QFE752/1002
Время наблюдения
2021-02-26T20:30:00Z
Температура C
-11.0
Точка росы
-14.0
Направление ветра
160
Скорость ветра (узлы)
4
Метео видимость
3.11
Явления погоды
-SHSN
Условия полета
IFR
Аэропорт подробнее: 

Авиационная погода в Толмачево

Регион: 
Погода METAR: 
UNNT 262030Z 21004MPS 9000 -SN SCT040 M25/M29 Q1033 R25/820160 R16/810160 NOSIG RMK QFE765/1020
Время наблюдения
2021-02-26T20:30:00Z
Температура C
-25.0
Точка росы
-29.0
Направление ветра
210
Скорость ветра (узлы)
8
Метео видимость
5.59
Явления погоды
-SN
Условия полета
VFR
Аэропорт подробнее: 

Авиационная погода в Вардё

Регион: 
Погода METAR: 
ENSS 261750Z 35027KT 9999 6000NW -SHRA SCT014 BKN020 01/M02 Q1001 RMK WIND 500FT 35036KT
Время наблюдения
2021-02-26T17:50:00Z
Температура C
1.0
Точка росы
-2.0
Направление ветра
350
Скорость ветра (узлы)
27
Метео видимость
6.21
Явления погоды
-SHRA
Условия полета
MVFR

Авиационная погода в Якутске

Регион: 
Погода METAR: 
UEEE 262030Z 34003MPS 5000 BR NSC M36/M40 Q1027 R23L/450150 NOSIG RMK QFE761
Время наблюдения
2021-02-26T20:30:00Z
Температура C
-36.0
Точка росы
-40.0
Направление ветра
340
Скорость ветра (узлы)
6
Метео видимость
3.11
Явления погоды
BR
Условия полета
MVFR
Аэропорт подробнее: